Time;durP1;ratioP1;P1;durP2;ratioP2;P2;SDS_P1;SDS_P2;PMS_P1;PMS_P2;Temp;Humidity;BMP_temperature;BMP_pressure;BME280_temperature;BME280_humidity;BME280_pressure;Samples;Min_cycle;Max_cycle;Signal;HPM_P1;HPM_P2
2023/09/25 00:24:32;;;;;;;9.40;3.65;;;;;;;12.94;100.00;154631.50;5737399;24;19923;-76
2023/09/25 00:26:57;;;;;;;5.30;3.47;;;;;;;12.90;100.00;154621.13;4805918;29;20034;-76
2023/09/25 00:31:58;;;;;;;8.82;3.55;;;;;;;12.91;100.00;154622.44;5384002;24;20065;-74
2023/09/25 00:34:23;;;;;;;7.87;3.87;;;;;;;12.90;100.00;154621.13;4829950;29;20029;-74
2023/09/25 00:36:49;;;;;;;6.67;3.87;;;;;;;12.90;100.00;154619.81;4830276;29;20049;-74
2023/09/25 00:44:24;;;;;;;5.47;3.60;;;;;;;12.87;100.00;154612.06;5226909;24;20062;-75
2023/09/25 00:46:50;;;;;;;5.87;4.03;;;;;;;12.87;100.00;154613.31;4823084;29;20030;-76
2023/09/25 00:49:16;;;;;;;6.97;3.70;;;;;;;12.80;100.00;154593.91;4820678;29;20118;-76
2023/09/25 01:58:07;;;;;;;7.25;4.00;;;;;;;12.38;100.00;121490.53;5867797;24;20039;31
2023/09/25 02:00:32;;;;;;;6.25;3.53;;;;;;;12.30;100.00;124302.09;4772491;29;20367;-74
2023/09/25 02:02:58;;;;;;;4.03;3.47;;;;;;;12.31;100.00;123949.53;4779978;30;20129;-75
2023/09/25 02:29:42;;;;;;;7.30;3.80;;;;;;;12.13;100.00;114379.63;5627481;24;20144;-75
2023/09/25 02:32:07;;;;;;;7.47;3.87;;;;;;;12.12;100.00;114025.09;4838539;29;20120;-76
2023/09/25 02:34:32;;;;;;;11.37;4.43;;;;;;;12.17;100.00;117562.56;4847751;29;20051;-76
2023/09/25 02:36:58;;;;;;;6.60;3.83;;;;;;;12.14;100.00;118262.53;4851632;29;20395;-75
2023/09/25 02:39:23;;;;;;;6.87;4.27;;;;;;;12.16;100.00;118267.50;4851619;29;20444;-76
2023/09/25 03:49:05;;;;;;;5.43;3.42;;;;;;;12.27;100.00;138817.22;4872678;29;20109;-74
2023/09/25 04:25:18;;;;;;;7.57;4.28;;;;;;;12.21;100.00;134902.31;4978527;24;20062;-75
2023/09/25 04:27:44;;;;;;;4.65;3.92;;;;;;;12.17;100.00;135956.75;4820332;29;20034;-75
2023/09/25 04:30:14;;;;;;;11.00;4.15;;;;;;;12.19;100.00;135962.44;4816720;29;20516;-74
2023/09/25 05:19:13;;;;;;;10.43;3.95;;;;;;;12.36;100.00;154481.09;5372783;24;20065;-76
2023/09/25 05:21:38;;;;;;;7.30;4.63;;;;;;;12.33;100.00;154472.03;4839700;29;20041;-76
2023/09/25 05:24:04;;;;;;;7.93;4.23;;;;;;;12.39;100.00;154488.84;4834082;29;20052;-75
2023/09/25 05:44:30;;;;;;;5.40;3.47;;;;;;;12.37;100.00;154482.38;4870259;29;20060;-76
2023/09/25 05:46:56;;;;;;;6.67;3.80;;;;;;;12.42;100.00;154495.31;5053257;24;20418;-76
2023/09/25 05:49:21;;;;;;;12.40;4.33;;;;;;;12.39;100.00;154488.84;4838684;29;20029;-76
2023/09/25 06:20:15;;;;;;;7.50;3.63;;;;;;;12.68;100.00;154562.75;5626710;24;20058;-78
2023/09/25 08:06:11;;;;;;;6.93;3.00;;;;;;;15.24;100.00;155227.44;5576109;24;20062;-75
2023/09/25 08:08:37;;;;;;;6.38;2.50;;;;;;;15.34;100.00;155254.81;4834738;29;20042;-74
2023/09/25 08:11:02;;;;;;;7.77;3.10;;;;;;;15.49;100.00;155293.78;4839248;29;20060;-73
2023/09/25 08:13:28;;;;;;;6.47;3.00;;;;;;;15.46;100.00;155284.66;4819565;29;20087;-74
2023/09/25 08:15:53;;;;;;;5.03;3.60;;;;;;;15.54;100.00;155306.75;4838271;29;20521;-73
2023/09/25 08:18:19;;;;;;;6.50;2.90;;;;;;;15.64;100.00;155331.47;4815318;29;20141;-75
2023/09/25 08:20:45;;;;;;;4.93;3.43;;;;;;;15.74;100.00;155357.47;4822051;29;20291;-72
2023/09/25 08:23:10;;;;;;;7.80;3.22;;;;;;;15.76;100.00;155363.97;4838194;29;20056;-75
2023/09/25 08:25:36;;;;;;;3.57;2.63;;;;;;;15.89;100.00;155396.44;4822669;29;20056;-74
2023/09/25 08:28:01;;;;;;;5.37;3.13;;;;;;;16.00;100.00;155425.09;4834529;29;20514;-74
2023/09/25 08:30:26;;;;;;;5.10;2.80;;;;;;;16.04;100.00;155435.44;4820774;29;20506;-75
2023/09/25 08:32:53;;;;;;;5.40;3.30;;;;;;;16.09;100.00;155448.44;4819989;29;20065;-74
2023/09/25 08:35:19;;;;;;;4.03;2.92;;;;;;;16.17;100.00;155470.56;4836553;29;20048;-74
2023/09/25 08:37:45;;;;;;;8.27;3.17;;;;;;;16.13;100.00;155458.88;4822960;29;20029;-74
2023/09/25 08:40:10;;;;;;;6.30;2.70;;;;;;;16.32;100.00;155509.56;4825095;29;20502;-74
2023/09/25 08:42:37;;;;;;;13.20;3.30;;;;;;;16.31;100.00;155506.97;4834364;29;20042;-74
2023/09/25 08:45:04;;;;;;;14.90;3.33;;;;;;;16.32;100.00;155508.31;4834507;29;20538;-74
2023/09/25 08:47:34;;;;;;;9.05;3.17;;;;;;;16.42;100.00;155534.31;4821744;29;20068;-74
2023/09/25 08:50:00;;;;;;;3.40;2.55;;;;;;;16.51;100.00;155557.75;4828175;29;20026;-74
2023/09/25 08:52:26;;;;;;;5.13;2.97;;;;;;;16.57;100.00;155574.66;4839315;29;20034;-75
2023/09/25 08:54:52;;;;;;;6.38;2.80;;;;;;;16.68;100.00;155601.97;4838017;29;20050;-74
2023/09/25 08:57:19;;;;;;;6.40;3.13;;;;;;;16.63;100.00;155588.94;4837549;29;20247;-74
2023/09/25 08:59:45;;;;;;;;;;;;;;;16.68;100.00;155601.97;4837140;29;20090;-74
2023/09/25 09:02:12;;;;;;;4.13;2.58;;;;;;;16.76;100.00;155622.81;4822201;29;19916;-74
2023/09/25 09:04:37;;;;;;;9.77;2.70;;;;;;;16.86;100.00;155648.81;4839322;29;20099;-74
2023/09/25 09:07:08;;;;;;;8.53;2.77;;;;;;;16.92;100.00;155665.69;4823701;29;20062;-75
2023/09/25 09:09:34;;;;;;;5.68;3.13;;;;;;;16.91;100.00;155663.09;4832252;29;20086;-75
2023/09/25 09:12:00;;;;;;;10.45;3.30;;;;;;;16.96;100.00;155676.13;4815774;29;20026;-73
2023/09/25 09:14:40;;;;;;;7.53;3.53;;;;;;;16.95;100.00;155673.53;4819834;29;20120;-75
2023/09/25 09:17:06;;;;;;;4.45;2.35;;;;;;;17.11;100.00;155713.84;4836475;29;20026;-74
2023/09/25 09:19:35;;;;;;;;;;;;;;;17.18;100.00;155733.38;4840780;29;20567;-75
2023/09/25 09:22:05;;;;;;;11.40;3.15;;;;;;;17.38;100.00;155784.13;4845024;29;20391;-74
2023/09/25 09:24:32;;;;;;;4.20;2.55;;;;;;;17.44;100.00;155799.84;4837782;29;20029;-81
2023/09/25 09:26:58;;;;;;;;;;;;;;;17.55;100.00;155828.47;4838255;29;20394;-80
2023/09/25 09:50:07;;;;;;;6.47;3.00;;;;;;;18.39;100.00;156048.56;5458318;24;20142;-80
2023/09/25 09:52:34;;;;;;;5.63;3.30;;;;;;;18.66;100.00;156117.59;4831302;29;20488;-79
2023/09/25 09:55:02;;;;;;;8.25;3.70;;;;;;;18.58;100.00;156096.75;4813985;29;20062;-78
2023/09/25 09:57:27;;;;;;;6.20;3.10;;;;;;;18.76;100.00;156143.63;4829602;29;20040;-78
2023/09/25 09:59:55;;;;;;;10.05;3.63;;;;;;;18.96;100.00;156195.78;4835495;29;20053;-77
2023/09/25 10:02:21;;;;;;;6.15;3.20;;;;;;;18.92;100.00;156186.66;4831622;29;20054;-78
2023/09/25 10:04:47;;;;;;;7.60;3.33;;;;;;;19.07;100.00;156224.44;4827351;29;20487;-78
2023/09/25 10:07:12;;;;;;;7.88;3.00;;;;;;;19.25;100.00;156271.41;4811486;29;20034;-79
2023/09/25 10:10:13;;;;;;;11.50;3.13;;;;;;;19.45;100.00;156323.53;4834075;29;20046;-79
2023/09/25 10:12:40;;;;;;;11.02;2.97;;;;;;;19.50;100.00;156336.59;4834141;29;20412;-77
2023/09/25 10:15:09;;;;;;;7.03;3.00;;;;;;;19.53;100.00;156344.44;4816158;29;20025;-78
2023/09/25 10:17:41;;;;;;;7.85;3.03;;;;;;;19.61;100.00;156365.25;4832672;29;20400;-78
2023/09/25 10:20:32;;;;;;;7.30;3.22;;;;;;;19.77;100.00;156408.31;4833222;29;20030;-78
2023/09/25 10:25:46;;;;;;;4.70;3.30;;;;;;;19.81;100.00;156417.44;5065545;24;20061;-78
2023/09/25 10:28:16;;;;;;;9.18;3.00;;;;;;;20.06;100.00;156482.66;4835998;29;20050;-78
2023/09/25 10:30:42;;;;;;;4.10;3.35;;;;;;;20.35;100.00;156559.66;4830561;29;20120;-79
2023/09/25 10:33:07;;;;;;;14.40;3.43;;;;;;;20.48;100.00;156593.53;4852315;29;20116;-74
2023/09/25 10:35:40;;;;;;;5.50;3.27;;;;;;;20.79;100.00;156674.44;4863352;29;20489;-76
2023/09/25 10:38:25;;;;;;;11.45;3.00;;;;;;;20.86;100.00;156691.44;4835234;29;20036;-73
2023/09/25 10:40:54;;;;;;;9.57;3.55;;;;;;;20.85;100.00;156688.78;4847729;29;20102;-74
2023/09/25 10:43:22;;;;;;;6.85;2.80;;;;;;;21.09;100.00;156751.50;4834161;29;20034;-73
2023/09/25 10:45:48;;;;;;;8.30;2.95;;;;;;;21.28;100.00;156802.41;4831144;29;20446;-74
2023/09/25 10:48:14;;;;;;;8.63;3.70;;;;;;;21.21;100.00;156782.81;4852709;29;20370;-74
2023/09/25 10:50:41;;;;;;;7.25;3.25;;;;;;;21.33;100.00;156814.13;4846971;29;20066;-74
2023/09/25 10:53:13;;;;;;;;;;;;;;;21.39;100.00;156829.84;4846441;29;20431;-74
2023/09/25 11:00:51;;;;;;;7.65;3.80;;;;;;;21.11;100.00;156758.03;5291322;24;20085;-73
2023/09/25 11:03:17;;;;;;;7.28;3.72;;;;;;;21.06;100.00;156743.66;4807970;29;20049;-74
2023/09/25 11:05:43;;;;;;;9.47;3.87;;;;;;;21.15;100.00;156767.16;4812561;29;20034;-75
2023/09/25 11:08:15;;;;;;;8.50;3.43;;;;;;;21.34;100.00;156818.06;4817689;29;20062;-74
2023/09/25 11:10:41;;;;;;;11.38;4.07;;;;;;;21.42;100.00;156837.66;4821754;29;20038;-74
2023/09/25 11:28:38;;;;;;;8.23;3.80;;;;;;;21.60;100.00;156885.94;5006359;24;20050;-72
2023/09/25 11:31:03;;;;;;;11.23;4.10;;;;;;;21.84;100.00;156947.38;4820700;29;20034;-73
2023/09/25 11:33:31;;;;;;;13.73;3.97;;;;;;;21.98;100.00;156983.97;4819284;29;20368;-75
2023/09/25 11:35:56;;;;;;;11.45;3.58;;;;;;;22.08;100.00;157011.38;4838684;29;20028;-73
2023/09/25 11:38:24;;;;;;;6.37;3.77;;;;;;;21.90;100.00;156963.03;4842635;29;20041;-74
2023/09/25 11:40:52;;;;;;;5.28;3.53;;;;;;;22.22;100.00;157047.97;4825986;29;20041;-74
2023/09/25 11:43:17;;;;;;;10.00;3.85;;;;;;;22.07;100.00;157007.44;4838619;29;20110;-75
2023/09/25 11:45:43;;;;;;;7.50;3.40;;;;;;;21.74;100.00;156921.25;4826838;29;20451;-75
2023/09/25 11:48:10;;;;;;;6.47;3.17;;;;;;;21.69;100.00;156908.19;4839788;29;20044;-74
2023/09/25 11:50:35;;;;;;;;;;;;;;;21.60;100.00;156884.69;4840010;29;20095;-74
2023/09/25 11:53:01;;;;;;;10.80;3.58;;;;;;;21.56;100.00;156875.50;4835243;29;19921;-73
2023/09/25 11:55:28;;;;;;;8.00;3.23;;;;;;;21.57;100.00;156876.81;4823013;29;20484;-75
2023/09/25 11:57:54;;;;;;;11.63;3.45;;;;;;;21.33;100.00;156815.47;4826062;29;20034;-74
2023/09/25 12:00:19;;;;;;;8.27;3.10;;;;;;;21.46;100.00;156849.38;4840881;29;20566;-74
2023/09/25 12:02:48;;;;;;;12.13;3.60;;;;;;;21.53;100.00;156866.38;4839017;29;20461;-73
2023/09/25 12:05:16;;;;;;;5.85;3.10;;;;;;;21.53;100.00;156866.38;4840883;29;20041;-74
2023/09/25 12:07:42;;;;;;;14.90;4.28;;;;;;;21.60;100.00;156885.94;4819174;29;20037;-74
2023/09/25 12:10:09;;;;;;;12.52;4.13;;;;;;;21.54;100.00;156870.28;4840599;29;20030;-74
2023/09/25 12:12:35;;;;;;;13.80;3.85;;;;;;;21.48;100.00;156854.63;4837135;29;20042;-75
2023/09/25 12:15:03;;;;;;;6.82;3.75;;;;;;;21.39;100.00;156829.84;4839884;29;20026;-73
2023/09/25 12:17:30;;;;;;;14.70;3.97;;;;;;;21.11;100.00;156758.03;4837587;29;20062;-75
2023/09/25 12:20:11;;;;;;;14.05;3.63;;;;;;;21.19;100.00;156777.63;4825094;29;20037;-74
2023/09/25 12:22:42;;;;;;;10.70;3.42;;;;;;;21.02;100.00;156733.25;4837277;29;20042;-74
2023/09/25 12:25:12;;;;;;;13.57;3.58;;;;;;;21.09;100.00;156751.50;4838842;29;20026;-74
2023/09/25 13:17:16;;;;;;;11.23;4.53;;;;;;;23.25;100.00;157315.91;5815934;24;20036;-74
2023/09/25 13:19:42;;;;;;;15.77;4.70;;;;;;;23.22;100.00;157308.09;4838830;29;20042;-74
2023/09/25 13:22:08;;;;;;;9.25;4.50;;;;;;;23.25;100.00;157317.25;4836791;29;20400;-73
2023/09/25 13:24:34;;;;;;;14.68;5.00;;;;;;;23.42;100.00;157360.41;4857333;29;20486;-75
2023/09/25 13:26:59;;;;;;;10.40;4.53;;;;;;;23.29;100.00;157326.38;4850371;29;20029;-74
2023/09/25 13:29:24;;;;;;;9.80;4.60;;;;;;;23.35;100.00;157343.38;4842365;29;20025;-75
2023/09/25 13:31:49;;;;;;;11.77;4.73;;;;;;;23.44;100.00;157365.63;4849294;29;20132;-73
2023/09/25 13:34:15;;;;;;;11.40;4.63;;;;;;;23.49;100.00;157378.69;4841931;29;20087;-74
2023/09/25 13:36:41;;;;;;;17.42;4.88;;;;;;;23.37;100.00;157348.59;4853428;29;20112;-74
2023/09/25 13:39:06;;;;;;;8.37;4.47;;;;;;;23.27;100.00;157321.19;4832998;29;20584;-73
2023/09/25 14:23:35;;;;;;;6.88;3.03;;;;;;;22.05;100.00;157003.56;5172521;24;20064;-74
2023/09/25 14:26:01;;;;;;;9.27;3.47;;;;;;;21.86;100.00;156953.91;4827501;29;20050;-74
2023/09/25 14:28:26;;;;;;;7.67;3.30;;;;;;;21.97;100.00;156982.63;4854350;29;20105;-75
2023/09/25 14:30:52;;;;;;;9.37;3.27;;;;;;;21.93;100.00;156970.91;4851065;29;20065;-73
2023/09/25 14:33:17;;;;;;;7.97;3.47;;;;;;;21.82;100.00;156942.19;4840610;29;20045;-74
2023/09/25 14:35:42;;;;;;;7.90;3.17;;;;;;;21.81;100.00;156939.53;4852079;29;20105;-74
2023/09/25 14:38:08;;;;;;;7.90;3.20;;;;;;;21.69;100.00;156908.19;4853548;29;20038;-75
2023/09/25 14:40:33;;;;;;;9.57;3.23;;;;;;;21.47;100.00;156850.69;4851503;29;20041;-75
2023/09/25 14:43:00;;;;;;;8.53;2.90;;;;;;;21.28;100.00;156801.13;4850894;29;20041;-74
2023/09/25 15:24:12;;;;;;;7.85;2.55;;;;;;;21.07;100.00;156747.56;5797200;24;20186;-74
2023/09/25 15:26:38;;;;;;;5.87;2.60;;;;;;;21.14;100.00;156764.56;4838488;29;20073;-75
2023/09/25 15:29:03;;;;;;;7.47;2.73;;;;;;;21.14;100.00;156764.56;4836760;29;20060;-74
2023/09/25 15:31:29;;;;;;;5.50;3.20;;;;;;;21.07;100.00;156747.56;4837127;29;20042;-73
2023/09/25 15:33:54;;;;;;;8.80;3.00;;;;;;;20.90;100.00;156703.22;4825416;29;20193;-75
2023/09/25 15:36:19;;;;;;;6.57;2.67;;;;;;;20.81;100.00;156678.38;4822668;29;20099;-74
2023/09/25 15:38:45;;;;;;;10.63;3.33;;;;;;;20.71;100.00;156652.28;4840220;29;20026;-74
2023/09/25 15:41:11;;;;;;;4.43;2.80;;;;;;;20.65;100.00;156637.91;4840268;29;20050;-75
2023/09/25 15:43:36;;;;;;;7.45;2.90;;;;;;;20.65;100.00;156636.63;4838947;29;20034;-73
2023/09/25 15:58:58;;;;;;;8.95;3.28;;;;;;;20.77;100.00;156669.25;5285827;24;20173;-74
2023/09/25 16:01:23;;;;;;;7.60;3.23;;;;;;;20.70;100.00;156650.94;4823866;29;20046;-74
2023/09/25 16:03:48;;;;;;;16.17;3.53;;;;;;;20.68;100.00;156644.41;4837396;29;20048;-74
2023/09/25 16:06:14;;;;;;;3.90;3.00;;;;;;;20.65;100.00;156637.91;4820542;29;20502;-73
2023/09/25 16:08:40;;;;;;;8.90;3.83;;;;;;;20.60;100.00;156623.56;4837158;29;20933;-74
2023/09/25 16:11:05;;;;;;;8.97;3.33;;;;;;;20.60;100.00;156624.84;4833799;29;20025;-73
2023/09/25 16:13:32;;;;;;;12.93;3.67;;;;;;;20.64;100.00;156635.31;4834195;29;20393;-74
2023/09/25 16:15:57;;;;;;;11.43;2.83;;;;;;;20.59;100.00;156620.97;4834292;29;20234;-74
2023/09/25 16:28:43;;;;;;;9.23;3.85;;;;;;;20.37;100.00;156564.84;4965974;24;20102;-74
2023/09/25 16:31:09;;;;;;;8.10;2.90;;;;;;;20.36;100.00;156562.25;4836712;29;20098;-73
2023/09/25 16:33:34;;;;;;;9.10;2.93;;;;;;;20.34;100.00;156557.00;4835816;29;21629;-73
2023/09/25 16:35:59;;;;;;;10.17;3.00;;;;;;;20.32;100.00;156550.53;4821311;29;20061;-74
2023/09/25 17:12:30;;;;;;;9.30;3.42;;;;;;;19.73;100.00;156396.53;5200108;24;20057;-76
2023/09/25 17:14:55;;;;;;;14.70;3.40;;;;;;;19.73;100.00;156396.53;4853045;29;20045;-75
2023/09/25 17:17:20;;;;;;;11.43;3.57;;;;;;;19.69;100.00;156386.16;4844228;29;20483;-76
2023/09/25 17:19:46;;;;;;;12.63;4.00;;;;;;;19.69;100.00;156387.41;4836610;29;20057;-75
2023/09/25 17:22:11;;;;;;;12.07;3.53;;;;;;;19.66;100.00;156379.63;4850817;29;20542;-75
2023/09/25 17:24:36;;;;;;;6.13;3.70;;;;;;;19.60;100.00;156364.00;4830419;29;20070;-75
2023/09/25 17:27:02;;;;;;;9.50;3.83;;;;;;;19.54;100.00;156347.03;4852240;29;20117;-75
2023/09/25 17:29:27;;;;;;;9.53;3.43;;;;;;;19.51;100.00;156339.19;4837882;29;20060;-76
2023/09/25 17:31:52;;;;;;;9.80;3.50;;;;;;;19.50;100.00;156337.91;4843997;29;20073;-75
2023/09/25 17:34:18;;;;;;;11.17;3.13;;;;;;;19.51;100.00;156340.50;4843447;29;20059;-81
2023/09/25 17:36:43;;;;;;;11.80;2.93;;;;;;;19.45;100.00;156323.53;4838660;29;20120;-80
2023/09/25 17:39:10;;;;;;;13.17;3.50;;;;;;;19.46;100.00;156327.47;4853044;29;20037;-82
2023/09/25 17:41:35;;;;;;;11.23;2.88;;;;;;;19.34;100.00;156294.88;4849939;29;20395;-81
2023/09/25 18:38:37;;;;;;;8.10;3.88;;;;;;;16.80;100.00;82711.06;5078675;24;20153;-80
2023/09/25 18:41:03;;;;;;;11.37;4.33;;;;;;;16.72;100.00;69678.69;4836757;29;20113;-79
2023/09/25 18:43:28;;;;;;;10.33;4.00;;;;;;;16.66;100.00;66159.28;4833389;29;20054;-78
2023/09/25 19:06:35;;;;;;;6.97;3.65;;;;;;;16.15;100.00;50001.56;5181986;24;20058;-75
2023/09/25 19:09:01;;;;;;;8.57;3.47;;;;;;;16.08;100.00;48947.97;4849893;29;20450;-76
2023/09/25 19:11:27;;;;;;;8.03;4.17;;;;;;;15.98;100.00;46147.66;4835267;29;20504;-76
2023/09/25 19:13:53;;;;;;;10.73;4.00;;;;;;;15.96;100.00;50684.34;4837542;29;20040;-75
2023/09/25 19:55:06;;;;;;;13.30;4.38;;;;;;;15.24;100.00;29052.78;5685315;24;19933;-74
2023/09/25 19:57:31;;;;;;;10.90;5.00;;;;;;;15.24;100.00;31135.00;4842825;29;20494;-75
2023/09/25 19:59:57;;;;;;;13.13;4.17;;;;;;;15.17;100.00;34603.41;4852318;29;20046;-75
2023/09/25 20:02:22;;;;;;;9.90;4.80;;;;;;;15.13;100.00;35295.81;4856135;29;20046;-74
2023/09/25 20:04:49;;;;;;;7.90;4.40;;;;;;;15.13;100.00;32864.53;4843885;29;20060;-75
2023/09/25 20:35:41;;;;;;;15.34;5.38;;;;;;;14.65;100.00;18984.09;5827559;24;1252504;-75
2023/09/25 20:38:07;;;;;;;7.27;4.20;;;;;;;14.60;100.00;22441.00;4816978;29;20054;-75
2023/09/25 20:40:32;;;;;;;11.77;4.83;;;;;;;14.58;100.00;23132.25;4819568;29;20058;-75
2023/09/25 21:08:50;;;;;;;14.02;5.43;;;;;;;14.20;100.00;13445.31;4852072;24;20054;-75
2023/09/25 21:44:55;;;;;;;11.32;5.95;;;;;;;13.93;100.00;5860.00;4938524;24;19925;-74
2023/09/25 21:47:20;;;;;;;11.60;5.93;;;;;;;13.89;100.00;7236.19;4829667;29;20061;-75
2023/09/25 21:49:45;;;;;;;9.33;5.53;;;;;;;13.93;100.00;6892.50;4837478;29;20053;-74
2023/09/25 21:52:12;;;;;;;10.10;5.63;;;;;;;13.89;100.00;7924.81;4837482;29;20052;-75
2023/09/25 21:54:38;;;;;;;;;;;;;;;13.87;100.00;6547.47;4838040;29;20090;-75
2023/09/25 21:57:03;;;;;;;7.88;5.10;;;;;;;13.83;100.00;4826.59;4818514;29;19925;-75
2023/09/25 21:59:29;;;;;;;13.43;5.30;;;;;;;13.81;100.00;6202.53;4841856;29;20034;-74
2023/09/25 22:14:52;;;;;;;13.80;5.55;;;;;;;13.73;100.00;7577.97;5125831;24;19924;-75
2023/09/25 22:35:25;;;;;;;7.90;5.45;;;;;;;13.65;100.00;2418.09;4995541;24;19939;-76
2023/09/25 22:38:08;;;;;;;8.35;5.85;;;;;;;13.68;100.00;2074.56;4843995;29;20479;-75
2023/09/25 22:40:36;;;;;;;9.82;6.00;;;;;;;13.63;100.00;1730.63;4852678;29;20026;-75
2023/09/25 22:43:02;;;;;;;10.52;5.20;;;;;;;13.64;100.00;1730.69;4835685;29;20505;-76
2023/09/25 22:45:28;;;;;;;10.67;6.07;;;;;;;13.66;100.00;2074.44;4849277;29;20025;-76
2023/09/25 22:47:55;;;;;;;10.73;5.50;;;;;;;13.68;100.00;700.13;4857365;29;20026;-76
2023/09/25 23:43:07;;;;;;;10.82;5.85;;;;;;;13.28;100.00;355.19;5297502;24;19924;-80
2023/09/25 23:45:32;;;;;;;9.63;5.78;;;;;;;13.29;100.00;-1017.75;4837687;29;20045;-79
2023/09/25 23:47:57;;;;;;;13.30;6.10;;;;;;;13.26;100.00;-2047.13;4836154;29;20091;-80
2023/09/25 23:50:24;;;;;;;8.20;5.87;;;;;;;13.25;100.00;-2390.19;4835869;29;20068;-80
2023/09/25 23:52:53;;;;;;;9.77;5.45;;;;;;;13.22;100.00;-2733.16;4834792;29;20042;-80
